• Join FlightAware (Why Join?)
  • Login
  • US Flag 
12:59PM EDT


 

Airport Tracker/Info


-or-


 

Live Flight TrackerFlight Track Log ✈ UAL4236 ✈ 05-Apr-2013 ✈ KJAN - KIAH

Flight Track Log - Related Links

Times and Time Zones

All times are in EDT time to prevent confusion due to time zone crossing. See the UAL4236 flight status page for this flight to view local times or setup timezone preferences in your user account.

Time Position Orientation Groundspeed Altitude Reporting Facility
EDT Latitude Longitude Course Direction KTS MPH feet Rate Location/Type
07:07AM 32.3544 -90.1261 245° Southwest 176 203 3,600  Level Memphis Center
07:08AM 32.3294 -90.1950 247° West 181 208 6,000 2,160 Climbing Memphis Center
07:09AM 32.1828 -90.3678 239° Southwest  Level FlightAware Approximate
07:09AM 32.2942 -90.2714 241° Southwest 230 265 8,000  Level Memphis Center
07:10AM 32.1349 -90.4635 239° Southwest  Level FlightAware Approximate
07:10AM 32.2544 -90.3572 241° Southwest 265 305 10,000  Level Memphis Center
07:11AM 32.0918 -90.5621 245° Southwest  Level FlightAware Approximate
07:11AM 32.2125 -90.4458 241° Southwest 295 339 11,700  Level Memphis Center
07:12AM 32.0516 -90.6626 245° Southwest  Level FlightAware Approximate
07:12AM 32.1686 -90.5464 243° Southwest 326 375 12,900  Level Memphis Center
07:13AM 32.1206 -90.6492 241° Southwest 348 400 14,400 1,260 Climbing Memphis Center
07:13AM 32.1078 -90.6800 244° Southwest 360 414 14,800 1,500 Climbing Houston Center
07:15AM 32.0542 -90.7972 242° Southwest 362 417 16,600 1,680 Climbing Houston Center
07:16AM 32.0067 -90.9008 242° Southwest 361 415 18,200 1,560 Climbing Houston Center
07:17AM 31.9594 -91.0058 242° Southwest 362 417 19,800 1,320 Climbing Houston Center
07:18AM 31.9106 -91.1117 241° Southwest 368 423 21,000 1,140 Climbing Houston Center
07:19AM 31.8586 -91.2217 241° Southwest 382 440 22,200 1,080 Climbing Houston Center
07:20AM 31.8067 -91.3333 241° Southwest 389 448 23,300 1,140 Climbing Houston Center
07:21AM 31.7547 -91.4469 242° Southwest 394 453 24,500 1,140 Climbing Houston Center
07:22AM 31.7019 -91.5614 242° Southwest 397 457 25,700 720 Climbing Houston Center
07:23AM 31.6469 -91.6764 241° Southwest 403 464 26,000 120 Climbing Houston Center
07:24AM 31.5903 -91.7994 242° Southwest 424 488 26,000  Level Houston Center
07:25AM 31.5178 -91.9506 241° Southwest 441 507 26,000  Level Houston Center
07:26AM 31.4639 -92.0644 241° Southwest 449 517 26,000  Level Houston Center
07:27AM 31.4028 -92.1939 241° Southwest 454 522 26,000  Level Houston Center
07:28AM 31.3406 -92.3239 241° Southwest 458 527 26,000  Level Houston Center
07:29AM 31.2786 -92.4531 241° Southwest 457 526 26,000  Level Houston Center
07:30AM 31.2103 -92.5817 238° Southwest 464 534 26,000  Level Houston Center
07:31AM 31.1253 -92.7331 237° Southwest 465 535 26,000  Level Houston Center
07:32AM 31.0553 -92.8581 237° Southwest 463 533 26,000  Level Houston Center
07:33AM 30.9856 -92.9856 237° Southwest 466 536 26,000  Level Houston Center
07:34AM 30.9142 -93.1122 237° Southwest 468 539 26,000  Level Houston Center
07:35AM 30.8436 -93.2383 237° Southwest 468 539 26,000  Level Houston Center
07:36AM 30.7722 -93.3639 237° Southwest 468 539 26,000  Level Houston Center
07:37AM 30.7011 -93.4886 236° Southwest 468 539 26,000 -420 Level Houston Center
07:38AM 30.6303 -93.6125 236° Southwest 467 537 25,200 -1,320 Descending Houston Center
07:39AM 30.5611 -93.7364 237° Southwest 466 536 23,400 -2,220 Descending Houston Center
07:40AM 30.4792 -93.8758 236° Southwest 448 516 20,800 -2,520 Descending Houston Center
07:41AM 30.4161 -93.9864 237° Southwest 420 483 18,300 -2,400 Descending Houston Center
07:42AM 30.3736 -94.0578 235° Southwest 404 465 16,900 -2,220 Descending Houston Center
07:42AM 30.3531 -94.0956 238° Southwest 410 472 16,100 -1,980 Descending Houston Center
07:42AM 30.3289 -94.1364 236° Southwest 409 471 15,500 -1,980 Descending Houston Center
07:43AM 30.2906 -94.2036 237° Southwest 408 470 14,100 -2,100 Descending Houston Center
07:43AM 30.2700 -94.2389 236° Southwest 399 459 13,400 -1,980 Descending Houston Center
07:44AM 30.2317 -94.3047 236° Southwest 384 442 12,100 -1,500 Descending Houston Center
07:44AM 30.2078 -94.3536 241° Southwest 369 425 11,800 -1,020 Descending Houston Center
07:45AM 30.1897 -94.4122 250° West 370 426 11,100 -1,140 Descending Houston Center
07:45AM 30.1733 -94.4742 253° West 370 426 10,700 -1,020 Descending Houston Center
07:46AM 30.1603 -94.5214 252° West 368 423 10,100 -600 Descending Houston Center
07:46AM 30.1422 -94.5847 252° West 356 410 10,100 -240 Level Houston Center
07:47AM 30.1325 -94.6269 255° West 346 398 9,900 -120 Descending Houston Center
07:47AM 30.1158 -94.6822 251° West 299 344 10,000 -900 Climbing Houston Center
07:48AM 30.1028 -94.7336 254° West 283 326 9,000 -1,740 Descending Houston Center
07:48AM 30.0947 -94.7694 255° West 282 325 8,300 -1,800 Descending Houston Center
07:49AM 30.0797 -94.8189 251° West 278 320 7,200 -1,620 Descending Houston Center
07:49AM 30.0711 -94.8522 253° West 275 316 6,700 -1,620 Descending Houston Center
07:50AM 30.0578 -94.9022 253° West 273 314 5,600 -1,680 Descending Houston Center
07:50AM 30.0475 -94.9347 250° West 272 313 5,000 -1,620 Descending Houston Center
07:51AM 30.0350 -94.9850 254° West 273 314 4,000 -1,500 Descending Houston Center
07:51AM 30.0244 -95.0222 252° West 271 312 3,500 -900 Descending Houston Center
07:52AM 30.0128 -95.0672 253° West 271 312 3,100 -540 Descending Houston Center
07:52AM 30.0025 -95.1044 252° West 267 307 3,000 -300 Descending Houston Center
07:53AM 29.9933 -95.1453 255° West 264 304 2,800 -300 Descending Houston Center
07:53AM 29.9928 -95.1781 269° West 196 226 2,700 -720 Descending Houston Center
07:54AM 29.9942 -95.2092 273° West 223 257 2,100 -1,020 Descending Houston Center
07:55AM 29.9925 -95.2458 267° West 185 213 1,600 -1,140 Descending Houston Center